Time;durP1;ratioP1;P1;durP2;ratioP2;P2;SDS_P1;SDS_P2;PMS_P1;PMS_P2;Temp;Humidity;BMP_temperature;BMP_pressure;BME280_temperature;BME280_humidity;BME280_pressure;Samples;Min_cycle;Max_cycle;Signal;HPM_P1;HPM_P2
2021/07/01 00:02:43;;;;;;;0.90;0.90;;;14.70;71.10;;;14.19;57.35;94637.66;5139669;27;20986;-83
2021/07/01 00:05:14;;;;;;;0.90;0.90;;;14.60;71.20;;;14.18;57.68;94636.03;5092750;28;20229;-83
2021/07/01 00:07:42;;;;;;;0.85;0.85;;;14.60;71.30;;;14.15;57.84;94636.50;5094210;28;20210;-83
2021/07/01 00:10:17;;;;;;;0.90;0.90;;;14.60;71.30;;;14.14;57.66;94634.88;5079181;28;20222;-84
2021/07/01 00:12:44;;;;;;;0.80;0.80;;;14.60;71.50;;;14.12;57.57;94634.28;4997150;28;20216;-84
2021/07/01 00:15:14;;;;;;;0.73;0.73;;;14.60;71.30;;;14.09;57.50;94641.59;4945157;28;20256;-84
2021/07/01 00:17:42;;;;;;;0.88;0.82;;;14.50;71.40;;;14.07;57.72;94632.31;4905920;28;20213;-84
2021/07/01 00:20:10;;;;;;;0.80;0.80;;;14.50;71.30;;;14.06;57.59;94636.78;4755303;29;20273;-84
2021/07/01 00:25:11;;;;;;;0.90;0.90;;;14.50;71.40;;;14.01;57.97;94644.56;5127388;27;20369;-84
2021/07/01 00:27:38;;;;;;;0.98;0.95;;;14.50;71.40;;;14.00;58.07;94640.31;5085562;28;20638;-83
2021/07/01 00:30:08;;;;;;;0.80;0.80;;;14.50;71.60;;;13.98;58.14;94642.34;5046351;28;20596;-83
2021/07/01 00:32:36;;;;;;;0.85;0.85;;;14.40;71.70;;;13.99;58.24;94636.06;5049950;28;20211;-82
2021/07/01 00:35:05;;;;;;;0.90;0.90;;;14.50;71.80;;;14.00;57.97;94631.56;5003874;28;20326;-84
2021/07/01 00:37:34;;;;;;;1.17;0.88;;;14.40;71.80;;;14.00;57.95;94637.69;4885732;29;20587;-83
2021/07/01 00:40:06;;;;;;;0.80;0.80;;;14.40;71.70;;;14.00;58.06;94637.69;4747801;29;20243;-84
2021/07/01 00:42:33;;;;;;;0.90;0.90;;;14.40;71.80;;;14.02;58.28;94637.44;4579468;30;20290;-83
2021/07/01 00:47:04;;;;;;;0.85;0.73;;;14.40;71.80;;;13.98;58.61;94649.47;5140961;27;20533;-83
2021/07/01 00:49:31;;;;;;;1.02;0.90;;;14.40;71.80;;;14.00;58.26;94640.31;5078111;28;20275;-83
2021/07/01 00:51:57;;;;;;;0.88;0.88;;;14.50;72.00;;;14.03;58.50;94633.78;5056458;28;20225;-83
2021/07/01 00:54:24;;;;;;;0.80;0.80;;;14.50;71.90;;;14.05;58.02;94629.09;5063441;28;20713;-83
2021/07/01 00:56:50;;;;;;;1.00;1.00;;;14.50;72.00;;;14.06;58.49;94622.78;5016523;28;20328;-83
2021/07/01 00:59:17;;;;;;;0.80;0.80;;;14.40;72.00;;;14.09;58.14;94627.63;4986504;28;20235;-83
2021/07/01 01:01:44;;;;;;;0.80;0.80;;;14.40;72.10;;;14.11;57.87;94619.50;4886914;29;20240;-84
2021/07/01 01:04:11;;;;;;;1.00;0.90;;;14.40;72.00;;;14.12;58.04;94616.63;4841673;29;20239;-82
2021/07/01 01:08:31;;;;;;;1.83;0.90;;;14.40;72.00;;;14.15;57.96;94618.84;5148494;27;20546;-83
2021/07/01 01:10:58;;;;;;;0.82;0.82;;;14.50;71.90;;;14.15;57.87;94610.13;5108038;28;20218;-83
2021/07/01 01:13:46;;;;;;;0.80;0.80;;;14.50;72.00;;;14.16;57.97;94615.16;5098250;28;20262;-84
2021/07/01 01:16:45;;;;;;;0.80;0.80;;;14.50;72.00;;;14.14;58.04;94611.16;5013194;28;20207;-84
2021/07/01 01:19:12;;;;;;;0.90;0.90;;;14.60;72.10;;;14.14;58.08;94609.31;4983602;28;20688;-84
2021/07/01 01:21:43;;;;;;;0.75;0.75;;;14.50;72.00;;;14.14;57.93;94608.50;4844974;29;20210;-83
2021/07/01 01:24:09;;;;;;;0.85;0.85;;;14.50;71.90;;;14.12;58.18;94613.19;4775777;29;20269;-83
2021/07/01 01:29:27;;;;;;;0.88;0.88;;;14.50;72.10;;;14.09;58.50;94604.69;5141158;27;20988;-84
2021/07/01 01:31:54;;;;;;;1.25;0.90;;;14.50;72.20;;;14.09;58.83;94611.81;5092214;28;20204;-84
2021/07/01 01:34:21;;;;;;;1.58;1.00;;;14.50;72.30;;;14.11;58.87;94617.69;5057425;28;21119;-84
2021/07/01 01:36:48;;;;;;;0.93;0.90;;;14.50;72.50;;;14.12;58.82;94616.63;5108653;28;20664;-83
2021/07/01 01:39:19;;;;;;;1.17;1.08;;;14.50;72.50;;;14.12;59.09;94624.53;5048385;28;20220;-84
2021/07/01 01:42:02;;;;;;;0.93;0.93;;;14.50;72.60;;;14.17;58.89;94621.25;4981732;28;20208;-83
2021/07/01 01:44:29;;;;;;;1.02;1.02;;;14.50;72.60;;;14.17;58.73;94622.06;4902432;29;20255;-84
2021/07/01 01:46:56;;;;;;;0.90;0.90;;;14.60;72.60;;;14.19;59.09;94620.00;4838796;29;20222;-84
2021/07/01 01:51:55;;;;;;;1.10;1.10;;;14.50;72.70;;;14.21;58.91;94612.66;5133250;27;20380;-83
2021/07/01 01:54:22;;;;;;;1.02;1.00;;;14.60;72.80;;;14.24;58.88;94620.16;5090594;28;20251;-84
2021/07/01 01:56:48;;;;;;;1.20;0.80;;;14.60;72.80;;;14.28;58.83;94614.41;5082238;27;20213;-84
2021/07/01 01:59:36;;;;;;;1.00;1.00;;;14.60;72.80;;;14.29;58.93;94611.56;5061176;28;20615;-84
2021/07/01 02:02:21;;;;;;;1.23;0.90;;;14.60;72.80;;;14.30;58.50;94612.38;5027802;28;20688;-84
2021/07/01 02:05:12;;;;;;;0.90;0.75;;;14.60;72.90;;;14.33;58.90;94607.47;4985173;28;20228;-84
2021/07/01 02:07:40;;;;;;;0.90;0.90;;;14.60;72.80;;;14.37;58.79;94615.72;4895661;29;20217;-83
2021/07/01 02:11:20;;;;;;;0.90;0.90;;;14.70;73.00;;;14.40;58.86;94612.63;5151341;27;20630;-83
2021/07/01 02:13:47;;;;;;;0.80;0.80;;;14.70;72.90;;;14.45;58.60;94606.69;5112839;28;20220;-83
2021/07/01 02:16:52;;;;;;;0.80;0.80;;;14.70;73.00;;;14.47;59.04;94613.34;5041767;28;20207;-83
2021/07/01 02:19:18;;;;;;;0.90;0.90;;;14.70;72.90;;;14.53;58.89;94603.75;5009081;28;20316;-83
2021/07/01 02:21:47;;;;;;;0.88;0.88;;;14.80;73.10;;;14.61;59.02;94607.91;5007877;28;20220;-83
2021/07/01 02:24:14;;;;;;;0.93;0.93;;;14.80;73.10;;;14.66;58.81;94603.59;4927498;28;20972;-83
2021/07/01 02:26:41;;;;;;;0.90;0.90;;;14.80;73.20;;;14.77;58.78;94609.13;4799590;29;20204;-83
2021/07/01 02:29:08;;;;;;;1.02;0.90;;;14.90;73.30;;;14.83;58.57;94598.47;4665247;30;20659;-84
2021/07/01 02:33:32;;;;;;;1.08;0.82;;;15.00;73.40;;;14.92;58.55;94601.59;5147898;27;20635;-83
2021/07/01 02:35:59;;;;;;;0.80;0.80;;;15.10;73.20;;;14.97;58.41;94595.63;5071956;28;20205;-84
2021/07/01 02:38:44;;;;;;;2.05;0.90;;;15.10;73.10;;;15.04;58.42;94601.63;5050514;28;20326;-83
2021/07/01 02:41:16;;;;;;;0.80;0.80;;;15.20;73.20;;;15.10;58.28;94598.06;5054480;28;20236;-83
2021/07/01 02:43:44;;;;;;;1.00;1.00;;;15.20;73.10;;;15.14;58.05;94598.44;5013922;28;20323;-83
2021/07/01 02:46:40;;;;;;;0.80;0.80;;;15.20;73.10;;;15.24;58.29;94608.44;4965546;28;20221;-83
2021/07/01 02:49:12;;;;;;;0.80;0.80;;;15.30;73.10;;;15.28;58.15;94609.56;4897475;29;20756;-84
2021/07/01 02:54:16;;;;;;;0.90;0.90;;;15.40;73.10;;;15.39;58.13;94619.34;5138590;27;20569;-83
2021/07/01 02:56:42;;;;;;;1.05;0.98;;;15.50;73.00;;;15.44;57.83;94616.84;5108784;28;20193;-84
2021/07/01 02:59:15;;;;;;;1.55;1.00;;;15.50;73.00;;;15.48;57.84;94622.47;5099815;28;20746;-83
2021/07/01 03:02:01;;;;;;;1.08;0.70;;;15.50;72.90;;;15.47;57.73;94613.72;5058402;28;20657;-84
2021/07/01 03:04:35;;;;;;;0.90;0.90;;;15.60;72.80;;;15.51;57.64;94609.59;5000454;28;20233;-83
2021/07/01 03:07:01;;;;;;;0.80;0.80;;;15.60;72.70;;;15.60;57.91;94617.97;4986469;28;20205;-83
2021/07/01 03:09:28;;;;;;;0.70;0.70;;;15.70;72.80;;;15.63;57.90;94614.06;4858092;29;20591;-84
2021/07/01 03:11:55;;;;;;;1.10;1.02;;;15.70;72.80;;;15.65;57.52;94612.00;4716120;29;21969;-83
2021/07/01 03:16:16;;;;;;;0.70;0.70;;;15.70;72.70;;;15.69;57.69;94613.94;5150982;27;20636;-84
2021/07/01 03:18:43;;;;;;;0.90;0.90;;;15.80;72.70;;;15.75;57.57;94614.06;5066079;28;20209;-84
2021/07/01 03:21:28;;;;;;;1.17;1.08;;;15.80;72.70;;;15.78;57.61;94614.41;5067494;28;20217;-83
2021/07/01 03:23:58;;;;;;;1.20;1.00;;;16.00;72.80;;;15.82;57.74;94604.19;5033570;28;20256;-84
2021/07/01 03:26:25;;;;;;;0.90;0.90;;;15.90;72.70;;;15.86;57.52;94621.22;5034687;28;20266;-84
2021/07/01 03:28:52;;;;;;;0.80;0.80;;;16.00;72.90;;;15.89;57.66;94610.16;5022069;28;20237;-84
2021/07/01 03:31:24;;;;;;;0.85;0.85;;;16.10;72.90;;;15.92;57.73;94616.84;4928107;28;20217;-84
2021/07/01 03:33:50;;;;;;;1.00;1.00;;;16.00;72.80;;;15.94;57.77;94623.50;4706565;29;20280;-84
2021/07/01 03:38:48;;;;;;;0.80;0.80;;;16.10;72.80;;;15.96;57.57;94612.69;5147324;27;20392;-84
2021/07/01 03:41:23;;;;;;;0.90;0.90;;;16.10;72.70;;;15.98;57.56;94606.13;5064592;28;20218;-83
2021/07/01 03:43:52;;;;;;;0.88;0.82;;;16.10;72.70;;;16.00;57.77;94606.69;5101881;28;20625;-84
2021/07/01 03:46:20;;;;;;;0.90;0.90;;;16.20;72.80;;;16.01;57.47;94604.84;5081040;28;20233;-83
2021/07/01 03:48:47;;;;;;;0.88;0.88;;;16.20;72.70;;;16.06;57.58;94604.94;5030821;28;20223;-84
2021/07/01 03:51:32;;;;;;;0.90;0.90;;;16.20;72.70;;;16.09;57.38;94609.00;4946591;28;20302;-85
2021/07/01 03:54:10;;;;;;;0.90;0.90;;;16.20;72.60;;;16.13;57.59;94620.69;4847453;29;20237;-84
2021/07/01 03:56:42;;;;;;;1.08;0.98;;;16.20;72.70;;;16.15;57.80;94623.94;4817302;29;20221;-84
2021/07/01 04:01:15;;;;;;;0.73;0.73;;;16.20;72.70;;;16.19;57.54;94638.28;5149669;27;20625;-84
2021/07/01 04:03:41;;;;;;;0.70;0.70;;;16.30;72.70;;;16.23;57.86;94641.28;5094443;28;20287;-84
2021/07/01 04:06:17;;;;;;;0.85;0.85;;;16.40;72.80;;;16.26;57.77;94633.66;5082845;28;20277;-85
2021/07/01 04:08:43;;;;;;;1.00;1.00;;;16.40;72.80;;;16.30;57.64;94632.16;5097018;27;20232;-84
2021/07/01 04:11:10;;;;;;;0.80;0.80;;;16.30;72.70;;;16.32;57.60;94631.94;5048931;28;20216;-85
2021/07/01 04:13:37;;;;;;;0.80;0.80;;;16.50;72.80;;;16.36;57.46;94635.72;5007057;28;20217;-85
2021/07/01 04:16:24;;;;;;;1.00;1.00;;;16.50;72.70;;;16.37;57.66;94642.63;4819413;29;20250;-84
2021/07/01 04:19:09;;;;;;;0.90;0.90;;;16.50;72.60;;;16.35;57.55;94649.97;4675203;29;20306;-84
2021/07/01 04:21:47;;;;;;;0.90;0.90;;;16.60;72.70;;;16.39;57.54;94643.16;5131466;27;20376;-84
2021/07/01 04:24:45;;;;;;;0.80;0.80;;;16.50;72.60;;;16.37;57.83;94647.91;5077693;28;20233;-84
2021/07/01 04:27:35;;;;;;;0.88;0.88;;;16.60;72.70;;;16.36;57.80;94645.50;5069170;28;20215;-86
2021/07/01 04:30:05;;;;;;;0.80;0.80;;;16.60;72.60;;;16.35;57.43;94649.97;5022654;28;20225;-85
2021/07/01 04:32:51;;;;;;;0.98;0.98;;;16.60;72.60;;;16.27;58.02;94651.16;4969805;28;20638;-84
2021/07/01 04:35:18;;;;;;;0.90;0.90;;;16.70;72.70;;;16.30;57.69;94658.63;4895604;28;20238;-84
2021/07/01 04:37:45;;;;;;;0.88;0.88;;;16.60;72.50;;;16.29;58.03;94658.84;4870518;28;20586;-83
2021/07/01 04:41:28;;;;;;;0.70;0.70;;;16.50;72.60;;;16.26;57.91;94654.84;5151308;27;20568;-84
2021/07/01 04:43:56;;;;;;;1.33;0.70;;;16.60;72.70;;;16.23;58.13;94649.22;5085338;28;20682;-85
2021/07/01 04:46:26;;;;;;;0.80;0.80;;;16.50;72.70;;;16.21;57.85;94659.22;5060683;28;20206;-85
2021/07/01 04:48:54;;;;;;;0.70;0.70;;;16.50;72.70;;;16.20;58.23;94665.53;5083140;28;20679;-85
2021/07/01 04:51:21;;;;;;;0.80;0.80;;;16.50;73.70;;;16.20;58.08;94660.25;5038952;28;20205;-84
2021/07/01 04:54:21;;;;;;;0.77;0.77;;;16.40;72.70;;;16.24;57.88;94666.69;4947277;28;20240;-85
2021/07/01 04:57:06;;;;;;;0.80;0.80;;;16.50;73.10;;;16.30;58.13;94663.13;4882671;29;20739;-84
2021/07/01 04:59:43;;;;;;;0.80;0.80;;;16.40;73.10;;;16.35;57.94;94671.16;5136851;27;20660;-84
2021/07/01 05:02:15;;;;;;;0.88;0.88;;;16.50;73.10;;;16.41;58.16;94680.81;5091289;28;20391;-83
2021/07/01 05:05:11;;;;;;;0.80;0.80;;;16.50;73.20;;;16.45;58.01;94675.84;5043477;28;20231;-85
2021/07/01 05:07:46;;;;;;;0.80;0.80;;;16.60;73.20;;;16.49;58.09;94672.50;5024220;28;20582;-84
2021/07/01 05:10:14;;;;;;;0.70;0.70;;;16.60;73.20;;;16.53;57.90;94680.78;4991991;28;20247;-84
2021/07/01 05:12:52;;;;;;;1.83;0.80;;;16.60;73.10;;;16.56;58.17;94676.84;4903931;29;20209;-83
2021/07/01 05:15:19;;;;;;;0.85;0.85;;;16.60;73.10;;;16.59;57.91;94687.00;4847656;29;20283;-83
2021/07/01 05:20:26;;;;;;;0.80;0.80;;;16.70;73.10;;;16.65;57.74;94684.19;5133018;27;20659;-84
2021/07/01 05:23:16;;;;;;;0.80;0.80;;;16.70;73.00;;;16.67;58.13;94685.81;5034758;28;20312;-84
2021/07/01 05:26:01;;;;;;;0.70;0.70;;;16.70;73.00;;;16.70;57.82;94690.63;5069559;28;20601;-84
2021/07/01 05:28:46;;;;;;;0.80;0.80;;;16.80;73.10;;;16.72;58.10;94686.72;5042715;28;20694;-84
2021/07/01 05:31:52;;;;;;;0.70;0.70;;;16.80;73.20;;;16.78;57.64;94695.56;4938064;28;20261;-83
2021/07/01 05:34:37;;;;;;;1.85;0.95;;;16.80;73.10;;;16.83;57.71;94700.16;4796358;29;20738;-85
2021/07/01 05:37:03;;;;;;;0.88;0.80;;;16.90;73.20;;;16.88;57.76;94698.41;4677920;30;20254;-84
2021/07/01 05:42:10;;;;;;;0.70;0.70;;;16.90;73.30;;;17.00;57.89;94694.94;5143098;27;20546;-85
2021/07/01 05:44:37;;;;;;;1.08;0.80;;;17.00;73.20;;;17.02;57.91;94700.81;5108238;28;20224;-84
2021/07/01 05:47:04;;;;;;;1.17;0.80;;;17.00;73.20;;;17.06;57.84;94700.06;5069367;28;20214;-84
2021/07/01 05:49:31;;;;;;;1.35;0.85;;;17.10;73.20;;;17.08;57.52;94705.16;5077293;28;20228;-84
2021/07/01 05:52:01;;;;;;;0.60;0.60;;;17.10;73.10;;;17.10;57.83;94706.50;5044174;28;20230;-84
2021/07/01 05:54:32;;;;;;;0.88;0.88;;;17.10;73.10;;;17.13;57.75;94708.69;4925332;28;20225;-84
2021/07/01 05:56:59;;;;;;;0.70;0.70;;;17.20;73.10;;;17.17;57.47;94709.00;4745667;29;20227;-84
2021/07/01 05:59:40;;;;;;;0.80;0.80;;;17.20;73.20;;;17.22;57.32;94705.66;4397504;31;20319;-84
2021/07/01 06:02:18;;;;;;;0.63;0.63;;;17.20;73.30;;;17.25;57.58;94707.84;5141426;27;20368;-84
2021/07/01 06:04:44;;;;;;;0.70;0.70;;;17.30;73.20;;;17.32;57.59;94708.50;5081049;28;20257;-83
2021/07/01 06:07:31;;;;;;;0.80;0.80;;;17.40;73.30;;;17.39;57.71;94705.66;5068272;28;20211;-84
2021/07/01 06:10:04;;;;;;;0.73;0.73;;;17.50;73.50;;;17.48;57.71;94701.59;5086996;27;20297;-84
2021/07/01 06:12:33;;;;;;;0.80;0.80;;;17.40;73.20;;;17.55;57.76;94701.41;5070081;28;20648;-84
2021/07/01 06:15:02;;;;;;;0.95;0.90;;;17.50;73.30;;;17.61;57.56;94700.47;4996953;28;20228;-85
2021/07/01 06:17:33;;;;;;;0.90;0.90;;;17.50;73.20;;;17.67;57.20;94701.34;4882718;29;20244;-83
2021/07/01 06:20:29;;;;;;;0.70;0.70;;;17.60;73.10;;;17.72;57.30;94701.41;5121232;27;20568;-85
2021/07/01 06:22:56;;;;;;;0.70;0.70;;;17.70;73.10;;;17.73;56.95;94695.06;5089731;28;20283;-84
2021/07/01 06:25:23;;;;;;;0.82;0.80;;;17.70;72.80;;;17.75;56.95;94701.75;5075449;28;20240;-84
2021/07/01 06:27:50;;;;;;;0.80;0.80;;;17.70;72.70;;;17.79;57.08;94691.44;5086900;28;20225;-84
2021/07/01 06:30:22;;;;;;;0.93;0.80;;;17.80;72.80;;;17.90;57.31;94700.38;5018096;28;20219;-86
2021/07/01 06:32:54;;;;;;;0.80;0.80;;;17.80;72.80;;;17.96;56.59;94693.34;4861371;29;20230;-84
2021/07/01 06:35:24;;;;;;;0.75;0.75;;;17.90;72.70;;;18.08;56.72;94688.72;4764367;29;20238;-85
2021/07/01 06:37:57;;;;;;;0.70;0.70;;;18.00;72.70;;;18.16;56.29;94703.41;4583888;30;23273;-85
2021/07/01 06:42:11;;;;;;;0.75;0.75;;;18.10;72.60;;;18.24;56.31;94703.78;5134650;27;20638;-84
2021/07/01 06:44:57;;;;;;;0.70;0.70;;;18.10;72.30;;;18.29;56.20;94707.59;5096065;28;20239;-84
2021/07/01 06:47:48;;;;;;;0.75;0.75;;;18.30;72.30;;;18.33;55.51;94712.13;5088744;28;20265;-85
2021/07/01 06:50:33;;;;;;;0.80;0.80;;;18.30;71.90;;;18.37;55.33;94713.28;5067868;28;20325;-85
2021/07/01 06:53:21;;;;;;;1.77;0.70;;;18.40;71.70;;;18.39;55.04;94720.97;4991908;28;20223;-84
2021/07/01 06:56:07;;;;;;;1.50;0.70;;;18.50;71.50;;;18.41;55.18;94716.25;4924737;28;20737;-84
2021/07/01 06:58:37;;;;;;;0.80;0.70;;;18.40;71.40;;;18.49;55.14;94709.69;4836119;29;20247;-84
2021/07/01 07:03:22;;;;;;;0.75;0.75;;;18.50;71.70;;;18.58;54.98;94713.53;5147022;27;20397;-85
2021/07/01 07:05:52;;;;;;;0.63;0.63;;;18.50;71.10;;;18.67;55.02;94712.03;5094004;28;20202;-85
2021/07/01 07:08:21;;;;;;;0.70;0.70;;;18.60;71.20;;;18.87;54.86;94710.66;5073264;28;20327;-86
2021/07/01 07:10:49;;;;;;;0.95;0.60;;;18.70;71.50;;;19.07;55.38;94710.13;5016881;28;20229;-85
2021/07/01 07:13:16;;;;;;;0.65;0.65;;;18.80;71.90;;;19.26;54.80;94717.75;4921913;28;20219;-85
2021/07/01 07:15:44;;;;;;;0.73;0.73;;;18.90;71.90;;;19.30;53.14;94714.34;4852236;29;20258;-85
2021/07/01 07:18:26;;;;;;;0.50;0.50;;;19.10;70.70;;;19.32;53.48;94733.50;4754361;29;20269;-84
2021/07/01 07:21:07;;;;;;;0.50;0.50;;;19.20;70.40;;;19.23;52.68;94736.88;4564388;30;20232;-84
2021/07/01 07:23:41;;;;;;;0.70;0.70;;;19.20;70.00;;;19.10;53.18;94724.75;5148906;27;20375;-85
2021/07/01 07:26:17;;;;;;;0.70;0.70;;;19.20;69.80;;;18.96;52.95;94732.34;5088794;28;20655;-81
2021/07/01 07:28:53;;;;;;;0.70;0.70;;;19.20;69.80;;;18.80;54.00;94728.69;5058341;28;20240;-85
2021/07/01 07:31:28;;;;;;;0.60;0.60;;;19.10;70.00;;;18.63;54.74;94731.38;5049142;28;20214;-85
2021/07/01 07:33:57;;;;;;;0.50;0.50;;;19.00;70.30;;;18.49;54.91;94734.41;4997237;28;20229;-85
2021/07/01 07:36:26;;;;;;;0.70;0.70;;;18.90;70.60;;;18.42;55.38;94736.44;4896901;29;20203;-85
2021/07/01 07:38:55;;;;;;;0.60;0.60;;;18.80;70.70;;;18.35;56.08;94735.81;4772043;29;20326;-84
2021/07/01 07:41:36;;;;;;;0.60;0.60;;;18.70;71.10;;;18.22;56.65;94740.41;4563626;30;20326;-84
2021/07/01 07:44:16;;;;;;;0.90;0.90;;;18.60;71.30;;;18.15;56.30;94739.78;5144121;27;20326;-84
2021/07/01 07:46:45;;;;;;;0.60;0.60;;;18.50;71.50;;;18.15;56.72;94739.78;5100661;28;20212;-84
2021/07/01 07:49:12;;;;;;;0.60;0.60;;;18.50;72.00;;;18.08;57.84;94737.28;5077677;28;20231;-85
2021/07/01 07:51:40;;;;;;;0.60;0.60;;;18.50;72.40;;;18.00;57.33;94729.72;5050753;28;20221;-85
2021/07/01 07:54:09;;;;;;;0.70;0.70;;;18.40;72.50;;;17.96;58.13;94741.09;4956708;28;20259;-85
2021/07/01 07:56:37;;;;;;;0.70;0.70;;;18.30;72.60;;;17.94;58.01;94738.63;4886585;29;20210;-85
2021/07/01 07:59:11;;;;;;;2.05;0.70;;;18.20;73.00;;;18.04;58.11;94744.13;4838621;29;20732;-85
2021/07/01 08:01:39;;;;;;;0.63;0.63;;;18.20;73.40;;;18.14;57.73;94747.97;4724921;29;20563;-85
2021/07/01 08:05:59;;;;;;;0.80;0.80;;;18.20;73.40;;;18.18;57.99;94747.25;5118310;27;20551;-84
2021/07/01 08:08:30;;;;;;;0.70;0.70;;;18.20;73.20;;;18.21;57.55;94746.78;5071151;28;20225;-85
2021/07/01 08:11:06;;;;;;;0.60;0.60;;;18.30;73.10;;;18.28;57.83;94748.44;5023783;28;20215;-84
2021/07/01 08:13:34;;;;;;;0.60;0.60;;;18.30;73.80;;;18.39;57.31;94739.56;4976335;28;20198;-84
2021/07/01 08:16:03;;;;;;;0.57;0.57;;;18.30;73.50;;;18.50;57.80;94732.53;4973449;28;20653;-85
2021/07/01 08:18:43;;;;;;;0.77;0.77;;;18.30;73.60;;;18.64;57.27;94746.25;4915004;28;20665;-84
2021/07/01 08:21:13;;;;;;;0.60;0.60;;;18.50;73.50;;;18.75;56.84;94739.22;4708683;30;20311;-85
2021/07/01 08:23:42;;;;;;;0.75;0.75;;;18.60;73.50;;;18.91;56.67;94743.72;4531669;30;20229;-85
2021/07/01 08:27:54;;;;;;;0.60;0.60;;;18.60;73.50;;;19.19;56.67;94753.31;5136856;27;20632;-84
2021/07/01 08:30:25;;;;;;;0.80;0.80;;;18.90;73.20;;;19.38;55.87;94738.88;5081912;28;20263;-85
2021/07/01 08:32:59;;;;;;;0.70;0.70;;;19.00;73.00;;;19.50;55.17;94736.84;5062147;28;20206;-86
2021/07/01 08:35:27;;;;;;;0.77;0.70;;;19.20;72.10;;;19.62;55.09;94732.16;5035980;28;20718;-85
2021/07/01 08:37:59;;;;;;;0.60;0.60;;;19.30;72.30;;;19.74;54.78;94734.66;4945141;28;20204;-85
2021/07/01 08:40:36;;;;;;;0.90;0.80;;;19.40;72.00;;;19.82;54.58;94731.56;4837621;29;20260;-83
2021/07/01 08:43:07;;;;;;;0.68;0.68;;;19.50;71.50;;;19.94;54.75;94744.69;4679295;30;20667;-85
2021/07/01 08:48:59;;;;;;;1.05;0.70;;;19.80;71.30;;;20.14;53.65;94727.25;5139598;27;20583;-84
2021/07/01 08:51:42;;;;;;;3.35;0.50;;;19.90;71.00;;;20.23;53.66;94728.38;5039573;28;21365;-85
2021/07/01 08:54:26;;;;;;;0.70;0.70;;;20.00;70.80;;;20.31;52.96;94729.75;5025290;28;20231;-86
2021/07/01 08:56:56;;;;;;;0.63;0.63;;;20.20;70.30;;;20.32;52.04;94728.69;5014573;28;20674;-85
2021/07/01 08:59:27;;;;;;;0.60;0.60;;;20.20;69.70;;;20.39;52.65;94726.59;4911594;28;20229;-83
2021/07/01 09:02:02;;;;;;;0.57;0.57;;;20.30;70.10;;;20.54;52.67;94754.41;4856071;29;20235;-84
2021/07/01 09:04:33;;;;;;;0.63;0.63;;;20.30;69.90;;;20.54;51.63;94733.88;4747541;29;20237;-85
2021/07/01 09:07:04;;;;;;;3.50;0.60;;;20.40;69.60;;;20.59;51.71;94736.59;4527763;30;20242;-85
2021/07/01 09:09:38;;;;;;;0.60;0.60;;;20.50;69.40;;;20.69;51.60;94751.81;5134548;27;20397;-86
2021/07/01 09:12:07;;;;;;;0.60;0.60;;;20.50;69.60;;;20.84;52.48;94739.66;5103437;28;20193;-85
2021/07/01 09:14:36;;;;;;;1.38;0.68;;;20.60;69.80;;;21.01;52.54;94736.78;5067586;28;20229;-85
2021/07/01 09:17:10;;;;;;;0.60;0.60;;;20.70;70.00;;;21.16;51.71;94733.34;5013493;28;20204;-84
2021/07/01 09:19:38;;;;;;;0.57;0.57;;;20.80;69.40;;;21.31;51.81;94741.38;4955028;28;20241;-84
2021/07/01 09:22:11;;;;;;;0.60;0.60;;;20.90;69.60;;;21.43;49.82;94743.81;4842342;29;20276;-86
2021/07/01 09:24:39;;;;;;;0.85;0.60;;;21.00;68.80;;;21.49;50.47;94741.94;4792299;29;20237;-85
2021/07/01 09:27:12;;;;;;;0.60;0.60;;;21.10;68.70;;;21.49;49.61;94747.28;4627528;30;20210;-85
2021/07/01 09:31:50;;;;;;;0.60;0.60;;;21.20;68.20;;;21.38;50.69;94749.94;5129658;27;20633;-85
2021/07/01 09:34:17;;;;;;;0.70;0.70;;;21.20;68.20;;;21.37;49.89;94756.34;5078238;28;20227;-86
2021/07/01 09:36:44;;;;;;;0.60;0.60;;;21.30;68.10;;;21.40;50.40;94739.00;5094635;28;20230;-86
2021/07/01 09:39:11;;;;;;;1.27;0.55;;;21.30;68.40;;;21.56;50.85;94739.81;5060450;28;20246;-85
2021/07/01 09:41:38;;;;;;;0.68;0.68;;;21.30;68.60;;;21.78;50.43;94738.81;4999103;28;20199;-86
2021/07/01 09:44:05;;;;;;;0.63;0.63;;;21.40;68.40;;;21.87;49.80;94731.84;4945511;28;20805;-86
2021/07/01 09:46:35;;;;;;;0.60;0.60;;;21.50;68.10;;;21.95;49.26;94725.16;4885387;29;20219;-84
2021/07/01 09:49:09;;;;;;;0.47;0.47;;;21.60;67.90;;;21.92;48.81;94729.19;4720957;29;20411;-85
2021/07/01 09:53:51;;;;;;;0.68;0.68;;;21.70;67.20;;;21.72;47.83;94732.66;5135936;27;20578;-85
2021/07/01 09:56:37;;;;;;;0.40;0.40;;;21.70;66.40;;;21.64;48.83;94731.34;5083193;28;20194;-85
2021/07/01 09:59:14;;;;;;;0.77;0.70;;;21.70;67.10;;;21.69;49.23;94735.84;5023483;28;20222;-85
2021/07/01 10:01:41;;;;;;;0.50;0.50;;;21.60;66.80;;;21.74;47.77;94734.00;4986563;28;20211;-87
2021/07/01 10:04:08;;;;;;;0.60;0.60;;;21.70;66.60;;;21.79;48.69;94729.72;4993066;28;20299;-85
2021/07/01 10:06:35;;;;;;;0.50;0.50;;;21.60;66.50;;;21.83;48.55;94725.47;4932173;28;20303;-84
2021/07/01 10:09:05;;;;;;;0.40;0.40;;;21.70;66.90;;;21.95;49.21;94711.81;4863037;29;20602;-85
2021/07/01 10:11:43;;;;;;;0.45;0.45;;;21.70;67.30;;;22.15;49.42;94719.03;4699109;30;20288;-86
2021/07/01 10:14:23;;;;;;;0.60;0.60;;;21.80;67.50;;;22.38;49.34;94715.78;5141008;27;20327;-86
2021/07/01 10:16:53;;;;;;;0.50;0.50;;;21.90;67.60;;;22.57;47.90;94715.22;5087818;28;20240;-86
2021/07/01 10:19:25;;;;;;;0.60;0.60;;;22.00;67.80;;;22.63;47.12;94713.31;5065391;28;20359;-85
2021/07/01 10:22:05;;;;;;;0.60;0.60;;;22.20;66.30;;;22.63;47.49;94706.09;5022087;28;20275;-86
2021/07/01 10:24:35;;;;;;;0.77;0.77;;;22.30;66.40;;;22.78;48.20;94712.47;4970531;28;20685;-85
2021/07/01 10:27:03;;;;;;;1.75;0.68;;;22.30;67.70;;;22.86;46.76;94709.19;4902676;28;20209;-86
2021/07/01 10:29:40;;;;;;;1.00;0.50;;;22.40;65.60;;;22.82;47.08;94708.16;4796214;29;20309;-85
2021/07/01 10:32:56;;;;;;;0.50;0.50;;;22.50;65.70;;;22.83;47.25;94715.13;5129874;27;20636;-84
2021/07/01 10:35:32;;;;;;;0.70;0.60;;;22.60;65.50;;;22.82;46.86;94708.94;5070028;28;20220;-85
2021/07/01 10:38:15;;;;;;;0.60;0.60;;;22.70;65.60;;;22.81;47.27;94710.03;5061332;28;20694;-86
2021/07/01 10:40:48;;;;;;;0.60;0.60;;;22.70;65.60;;;22.85;47.43;94692.38;5033414;28;20255;-85
2021/07/01 10:43:21;;;;;;;0.45;0.45;;;22.70;65.60;;;22.90;46.91;94699.56;4946386;28;20204;-86
2021/07/01 10:45:56;;;;;;;0.55;0.55;;;22.70;65.60;;;23.00;46.96;94702.19;4789345;29;20244;-86
2021/07/01 10:48:25;;;;;;;0.50;0.50;;;22.70;65.60;;;23.10;46.85;94714.69;4576357;30;20285;-84
2021/07/01 10:53:49;;;;;;;0.57;0.55;;;22.90;65.80;;;23.14;46.38;94701.56;5137760;27;20547;-85
2021/07/01 10:56:18;;;;;;;0.52;0.52;;;22.90;65.30;;;23.13;46.16;94700.78;5109061;28;20272;-87
2021/07/01 10:58:53;;;;;;;0.70;0.70;;;22.90;65.10;;;23.09;45.36;94704.28;5128742;28;20280;-85
2021/07/01 11:01:29;;;;;;;0.70;0.70;;;22.90;64.60;;;23.03;45.56;94698.97;5069993;28;20608;-84
2021/07/01 11:04:13;;;;;;;0.60;0.60;;;22.90;64.30;;;22.96;45.51;94695.78;5016866;28;20237;-86
2021/07/01 11:06:57;;;;;;;0.70;0.70;;;22.90;64.30;;;23.00;46.09;94693.38;4960597;28;20278;-85
2021/07/01 11:09:46;;;;;;;0.60;0.60;;;22.90;64.70;;;23.05;45.56;94698.69;4849028;29;20239;-86
2021/07/01 11:14:54;;;;;;;0.60;0.60;;;22.90;64.70;;;23.11;46.03;94686.88;5138509;27;20679;-86
2021/07/01 11:17:35;;;;;;;0.40;0.40;;;22.90;64.50;;;23.13;45.99;94690.09;5048983;28;20211;-86
2021/07/01 11:20:19;;;;;;;0.55;0.55;;;23.00;64.70;;;23.15;45.61;94692.47;5050199;28;20715;-87
2021/07/01 11:22:51;;;;;;;0.70;0.70;;;23.00;64.90;;;23.14;45.48;94689.03;5019975;28;20217;-85
2021/07/01 11:25:42;;;;;;;0.60;0.60;;;23.00;64.30;;;23.21;45.76;94683.38;5018594;28;20218;-85
2021/07/01 11:28:23;;;;;;;0.68;0.68;;;23.00;64.30;;;23.27;45.77;94692.19;4936968;28;20208;-84
2021/07/01 11:31:01;;;;;;;1.25;0.80;;;23.10;64.40;;;23.24;45.36;94701.56;4892442;28;20203;-86
2021/07/01 11:35:30;;;;;;;0.47;0.47;;;23.10;63.90;;;23.06;45.06;94692.28;5114287;27;20661;-85
2021/07/01 11:37:57;;;;;;;0.60;0.60;;;23.00;63.30;;;23.05;45.43;94685.31;5041620;28;20512;-86
2021/07/01 11:40:24;;;;;;;0.55;0.55;;;23.00;63.50;;;23.13;45.07;94679.38;5066011;28;20241;-86